Current | Forecast
Updated: 5:00 PM JST on April 30, 2017
Observed at Sendai Airport, Japan
Temperature 63°F
Humidity 59%
Dew Point 48°F
Wind SSW at 13 mph
Pressure 29.65 in (Steady)
Conditions Partly Cloudy
Visibility 6.2 miles
UV 1 out of 16
Clouds (FEW) : 5000 ft
Yesterday's Maximum 63°F
Yesterday's Minimum 46°F approx.
Yesterday's Heating Degree Days 11 approx.
Sunrise4:41 AM JST
Sunset6:26 PM JST
Moon Rise7:54 AM JST
Moon Set10:34 PM JST
Moon PhaseMoon Phase
Waxing Crescent
Raw METARMETAR RJSS 300800Z 20011KT 9999 FEW050 17/09 Q1004


Monday
. High: 73° F.
Tuesday
. High: 73° F.
Wednesday
. High: 68° F.
Thursday
. High: 73° F.
Friday
. High: 75° F.
Saturday
. High: 71° F.
Sunday
. High: 77° F.
Monday
. High: 66° F.

Units: English | Metric

Find the Weather for any City, State or Zipcode, or Country:

U.S. State List | Severe Weather | Tropical Storms | Ski Conditions
United States | Canada | Central America | South America | Asia | Europe | Australia | Africa | Islands

Weather Underground

© Copyright 2017
The Weather Company, LLC